createdAt,value
2018-10-19T00:02:07.278Z,99493.39
2018-10-19T00:04:34.447Z,99496.60
2018-10-19T00:07:01.587Z,99499.53
2018-10-19T00:09:28.752Z,99498.73
2018-10-19T00:11:55.926Z,99490.77
2018-10-19T00:14:23.081Z,99512.28
2018-10-19T00:16:50.234Z,99492.89
2018-10-19T00:19:17.366Z,99491.58
2018-10-19T00:21:44.521Z,99489.45
2018-10-19T00:24:11.642Z,99488.64
2018-10-19T00:26:38.781Z,99487.08
2018-10-19T00:29:05.952Z,99486.27
2018-10-19T00:31:33.042Z,99483.89
2018-10-19T00:34:00.171Z,99483.62
2018-10-19T00:36:27.309Z,99484.42
2018-10-19T00:38:54.474Z,99486.55
2018-10-19T00:41:21.623Z,99481.48
2018-10-19T00:43:49.017Z,99481.48
2018-10-19T00:46:16.184Z,99483.34
2018-10-19T00:48:43.297Z,99485.98
2018-10-19T00:51:10.608Z,99485.99
2018-10-19T00:53:37.685Z,99484.42
2018-10-19T00:56:04.867Z,99480.95
2018-10-19T00:58:32.038Z,99477.50
2018-10-19T01:00:59.273Z,99480.70
2018-10-19T01:03:26.429Z,99476.72
2018-10-19T01:05:53.591Z,99482.27
2018-10-19T01:08:20.767Z,99490.49
2018-10-19T01:10:47.913Z,99487.31
2018-10-19T01:13:15.096Z,99488.66
2018-10-19T01:15:42.236Z,99484.40
2018-10-19T01:18:09.433Z,99487.88
2018-10-19T01:20:36.616Z,99486.01
2018-10-19T01:23:04.229Z,99484.66
2018-10-19T01:25:31.366Z,99479.62
2018-10-19T01:27:58.496Z,99481.48
2018-10-19T01:30:25.746Z,99477.48
2018-10-19T01:32:52.969Z,99477.76
2018-10-19T01:35:20.095Z,99472.72
2018-10-19T01:37:47.290Z,99472.44
2018-10-19T01:40:14.468Z,99471.64
2018-10-19T01:42:41.653Z,99473.20
2018-10-19T01:45:10.744Z,99479.83
2018-10-19T01:47:38.330Z,99478.80
2018-10-19T01:50:05.765Z,99475.65
2018-10-19T01:52:32.909Z,99474.31
2018-10-19T01:55:00.062Z,99476.15
2018-10-19T01:57:27.255Z,99472.17
2018-10-19T01:59:54.430Z,99469.20
2018-10-19T02:02:21.690Z,99470.80
2018-10-19T02:04:48.926Z,99474.76
2018-10-19T02:07:16.049Z,99477.97
2018-10-19T02:09:43.195Z,99478.22
2018-10-19T02:12:10.346Z,99476.91
2018-10-19T02:14:38.077Z,99478.25
2018-10-19T02:17:05.996Z,99472.66
2018-10-19T02:19:33.096Z,99479.25
2018-10-19T02:22:00.198Z,99477.11
2018-10-19T02:24:27.351Z,99481.08
2018-10-19T02:26:54.587Z,99489.28
2018-10-19T02:29:21.675Z,99487.94
2018-10-19T02:31:48.836Z,99485.75
2018-10-19T02:34:15.996Z,99483.30
2018-10-19T02:36:43.662Z,99493.66
2018-10-19T02:39:10.879Z,99486.80
2018-10-19T02:41:38.018Z,99494.98
2018-10-19T02:44:05.313Z,99493.36
2018-10-19T02:46:32.488Z,99490.45
2018-10-19T02:48:59.640Z,99489.11
2018-10-19T02:51:26.817Z,99490.16
2018-10-19T02:53:53.962Z,99482.20
2018-10-19T02:56:21.132Z,99484.54
2018-10-19T02:58:48.444Z,99489.08
2018-10-19T03:01:15.984Z,99486.65
2018-10-19T03:03:43.182Z,99485.56
2018-10-19T03:06:10.333Z,99478.62
2018-10-19T03:08:37.517Z,99479.39
2018-10-19T03:11:05.056Z,99489.66
2018-10-19T03:13:32.158Z,99487.49
2018-10-19T03:15:59.285Z,99450.83
2018-10-19T03:18:26.471Z,99494.63
2018-10-19T03:20:53.669Z,99489.55
2018-10-19T03:23:20.806Z,99492.22
2018-10-19T03:25:47.923Z,99490.14
2018-10-19T03:28:15.115Z,99486.21
2018-10-19T03:30:42.276Z,99485.63
2018-10-19T03:33:09.437Z,99488.55
2018-10-19T03:35:36.607Z,99489.34
2018-10-19T03:38:04.154Z,99492.23
2018-10-19T03:40:31.303Z,99491.98
2018-10-19T03:42:58.489Z,99495.17
2018-10-19T03:45:25.690Z,99503.34
2018-10-19T03:47:52.865Z,99499.29
2018-10-19T03:50:20.008Z,99502.17
2018-10-19T03:52:47.170Z,99499.22
2018-10-19T03:55:14.345Z,99505.31
2018-10-19T03:57:41.491Z,99508.45
2018-10-19T04:00:08.654Z,99499.40
2018-10-19T04:02:35.813Z,99509.67
2018-10-19T04:05:03.018Z,99507.26
2018-10-19T04:07:30.225Z,99502.17
2018-10-19T04:09:57.448Z,99504.27
2018-10-19T04:12:24.716Z,99504.24
2018-10-19T04:14:51.851Z,99502.38
2018-10-19T04:17:19.002Z,99502.95
2018-10-19T04:19:46.137Z,99499.47
2018-10-19T04:22:13.290Z,99500.84
2018-10-19T04:24:40.429Z,99505.93
2018-10-19T04:27:07.828Z,99506.77
2018-10-19T04:29:34.888Z,99496.13
2018-10-19T04:32:02.024Z,99497.43
2018-10-19T04:34:29.342Z,99500.08
2018-10-19T04:37:01.872Z,99501.94
2018-10-19T04:39:29.065Z,99501.14
2018-10-19T04:41:56.363Z,99499.30
2018-10-19T04:44:23.613Z,99497.97
2018-10-19T04:46:50.766Z,99493.75
2018-10-19T04:49:17.922Z,99492.29
2018-10-19T04:51:45.114Z,99495.05
2018-10-19T04:54:12.373Z,99491.80
2018-10-19T04:56:39.551Z,99492.83
2018-10-19T04:59:06.857Z,99495.02
2018-10-19T05:01:34.039Z,99500.36
2018-10-19T05:04:01.182Z,99508.58
2018-10-19T05:06:28.573Z,99508.34
2018-10-19T05:08:55.726Z,99516.91
2018-10-19T05:11:22.893Z,99521.16
2018-10-19T05:13:50.071Z,99520.61
2018-10-19T05:16:17.422Z,99524.81
2018-10-19T05:18:44.606Z,99525.56
2018-10-19T05:21:11.858Z,99529.03
2018-10-19T05:23:39.335Z,99529.33
2018-10-19T05:26:06.691Z,99534.06
2018-10-19T05:28:34.066Z,99530.53
2018-10-19T05:31:01.270Z,99534.56
2018-10-19T05:33:28.707Z,99532.38
2018-10-19T05:35:56.112Z,99529.47
2018-10-19T05:38:23.533Z,99535.86
2018-10-19T05:40:50.686Z,99522.89
2018-10-19T05:43:17.895Z,99526.88
2018-10-19T05:45:45.249Z,99530.05
2018-10-19T05:48:12.499Z,99530.27
2018-10-19T05:50:39.664Z,99536.66
2018-10-19T05:53:06.873Z,99534.27
2018-10-19T05:55:34.016Z,99538.76
2018-10-19T05:58:01.274Z,99537.80
2018-10-19T06:00:28.511Z,99543.06
2018-10-19T06:02:55.662Z,99540.97
2018-10-19T06:05:22.826Z,99536.71
2018-10-19T06:07:50.099Z,99541.80
2018-10-19T06:10:18.240Z,99542.86
2018-10-19T06:12:45.472Z,99538.35
2018-10-19T06:15:12.877Z,99536.00
2018-10-19T06:17:40.092Z,99538.84
2018-10-19T06:20:07.414Z,99544.33
2018-10-19T06:22:34.512Z,99540.88
2018-10-19T06:25:01.751Z,99542.71
2018-10-19T06:27:28.977Z,99547.42
2018-10-19T06:29:57.236Z,99545.00
2018-10-19T06:32:24.460Z,99117.20
2018-10-19T06:34:51.626Z,99548.67
2018-10-19T06:37:18.854Z,99542.45
2018-10-19T06:39:46.299Z,99550.13
2018-10-19T06:42:13.562Z,99551.38
2018-10-19T06:44:40.814Z,99556.77
2018-10-19T06:47:08.215Z,99548.34
2018-10-19T06:49:35.470Z,99556.69
2018-10-19T06:52:02.782Z,99558.27
2018-10-19T06:54:30.240Z,99562.55
2018-10-19T06:56:57.618Z,99564.45
2018-10-19T06:59:24.904Z,99570.32
2018-10-19T07:01:52.226Z,99577.99
2018-10-19T07:04:19.371Z,99578.25
2018-10-19T07:06:47.207Z,99581.76
2018-10-19T07:09:14.606Z,99590.87
2018-10-19T07:11:41.895Z,99589.63
2018-10-19T07:14:09.151Z,99591.52
2018-10-19T07:16:36.331Z,99591.52
2018-10-19T07:23:56.307Z,99596.41
2018-10-19T07:26:23.534Z,99601.83
2018-10-19T07:28:50.773Z,99602.94
2018-10-19T07:31:18.984Z,99597.44
2018-10-19T07:33:46.153Z,99606.75
2018-10-19T07:36:13.397Z,99603.90
2018-10-19T07:38:40.634Z,99602.38
2018-10-19T07:41:07.971Z,99604.54
2018-10-19T07:43:35.186Z,99600.91
2018-10-19T07:46:02.541Z,99600.13
2018-10-19T07:48:29.869Z,99600.98
2018-10-19T07:50:57.104Z,99603.92
2018-10-19T07:53:24.864Z,99605.51
2018-10-19T07:55:53.133Z,99610.58
2018-10-19T07:58:20.586Z,99610.59
2018-10-19T08:00:49.030Z,99606.37
2018-10-19T08:03:16.294Z,99606.14
2018-10-19T08:05:43.563Z,99606.41
2018-10-19T08:08:11.191Z,99609.34
2018-10-19T08:10:39.256Z,99604.83
2018-10-19T08:13:06.755Z,99606.96
2018-10-19T08:15:34.011Z,99614.69
2018-10-19T08:18:01.259Z,99610.45
2018-10-19T08:20:28.546Z,99607.53
2018-10-19T08:22:55.851Z,99606.23
2018-10-19T08:25:23.234Z,99610.76
2018-10-19T08:27:50.462Z,99612.91
2018-10-19T08:30:17.663Z,99616.63
2018-10-19T08:32:45.793Z,99622.73
2018-10-19T08:35:13.175Z,99621.67
2018-10-19T08:37:40.530Z,99620.63
2018-10-19T08:40:07.675Z,99623.55
2018-10-19T08:42:35.127Z,99624.61
2018-10-19T08:45:02.400Z,99621.67
2018-10-19T08:47:29.715Z,99626.75
2018-10-19T08:49:56.859Z,99633.39
2018-10-19T08:52:24.019Z,99638.95
2018-10-19T08:54:51.741Z,99632.56
2018-10-19T08:57:18.918Z,99633.66
2018-10-19T08:59:46.919Z,99632.31
2018-10-19T09:02:14.199Z,99632.84
2018-10-19T09:04:41.509Z,99633.34
2018-10-19T09:07:08.742Z,99625.92
2018-10-19T09:09:35.966Z,99632.30
2018-10-19T09:12:03.338Z,99625.09
2018-10-19T09:14:41.961Z,99622.16
2018-10-19T09:17:09.240Z,99626.66
2018-10-19T09:19:36.491Z,99621.84
2018-10-19T09:22:03.676Z,99621.31
2018-10-19T09:24:30.969Z,99618.37
2018-10-19T09:26:58.370Z,99612.49
2018-10-19T09:29:25.625Z,99611.45
2018-10-19T09:31:52.865Z,99616.48
2018-10-19T09:34:20.135Z,99612.73
2018-10-19T09:36:47.701Z,99616.20
2018-10-19T09:39:15.722Z,99614.27
2018-10-19T09:41:43.103Z,99614.79
2018-10-19T09:44:10.349Z,99612.13
2018-10-19T09:46:39.325Z,99619.81
2018-10-19T09:49:07.857Z,99612.29
2018-10-19T09:51:35.510Z,99613.59
2018-10-19T09:54:02.775Z,99611.68
2018-10-19T09:56:29.966Z,99615.75
2018-10-19T09:58:57.216Z,99612.79
2018-10-19T10:01:28.361Z,99614.34
2018-10-19T10:03:55.663Z,99609.31
2018-10-19T10:06:23.127Z,99600.73
2018-10-19T10:08:50.356Z,99603.30
2018-10-19T10:11:17.777Z,99605.14
2018-10-19T10:13:45.399Z,99601.96
2018-10-19T10:16:12.663Z,99602.65
2018-10-19T10:18:40.205Z,99038.66
2018-10-19T10:21:07.891Z,99603.83
2018-10-19T10:23:35.099Z,99604.03
2018-10-19T10:26:02.231Z,99606.27
2018-10-19T10:28:29.621Z,99600.11
2018-10-19T10:30:56.996Z,99600.09
2018-10-19T10:33:24.350Z,99591.23
2018-10-19T10:35:51.662Z,99590.47
2018-10-19T10:38:18.993Z,99602.07
2018-10-19T10:40:46.658Z,99598.88
2018-10-19T10:43:14.095Z,99593.88
2018-10-19T10:45:41.267Z,99587.35
2018-10-19T10:48:08.617Z,99588.60
2018-10-19T10:50:35.939Z,99586.12
2018-10-19T10:53:03.204Z,99580.79
2018-10-19T10:55:30.457Z,99582.73
2018-10-19T10:57:57.820Z,99577.69
2018-10-19T11:00:25.077Z,99584.59
2018-10-19T11:02:53.106Z,99582.76
2018-10-19T11:05:20.384Z,99579.38
2018-10-19T11:07:49.776Z,99573.26
2018-10-19T11:10:17.106Z,99569.53
2018-10-19T11:12:44.171Z,99570.30
2018-10-19T11:15:12.646Z,99568.45
2018-10-19T11:17:40.804Z,99561.24
2018-10-19T11:20:08.050Z,99561.14
2018-10-19T11:22:35.370Z,99562.32
2018-10-19T11:25:02.671Z,99559.50
2018-10-19T11:27:29.935Z,99553.73
2018-10-19T11:29:57.433Z,99554.69
2018-10-19T11:32:24.630Z,99550.25
2018-10-19T11:34:51.834Z,99544.45
2018-10-19T11:37:19.176Z,99541.41
2018-10-19T11:39:58.383Z,99540.97
2018-10-19T11:42:26.843Z,99538.45
2018-10-19T11:44:54.232Z,99535.89
2018-10-19T11:47:21.960Z,99534.70
2018-10-19T11:49:49.146Z,99533.80
2018-10-19T11:52:16.403Z,99527.26
2018-10-19T11:54:43.645Z,99526.44
2018-10-19T11:57:11.528Z,99523.48
2018-10-19T11:59:38.630Z,99521.14
2018-10-19T12:02:06.665Z,99518.98
2018-10-19T12:04:34.308Z,99515.64
2018-10-19T12:07:01.812Z,99509.64
2018-10-19T12:09:28.975Z,99509.70
2018-10-19T12:11:56.195Z,99508.64
2018-10-19T12:14:23.371Z,99503.65
2018-10-19T12:16:51.131Z,99513.95
2018-10-19T12:19:22.608Z,99504.77
2018-10-19T12:21:50.126Z,99507.08
2018-10-19T12:24:17.750Z,99500.38
2018-10-19T12:26:45.045Z,99500.89
2018-10-19T12:29:12.251Z,99502.81
2018-10-19T12:31:40.563Z,99507.04
2018-10-19T12:34:08.980Z,99507.23
2018-10-19T12:36:36.578Z,99498.05
2018-10-19T12:39:06.654Z,99498.05
2018-10-19T12:41:34.352Z,99494.72
2018-10-19T12:44:01.550Z,99494.79
2018-10-19T12:46:42.181Z,99496.95
2018-10-19T12:49:11.286Z,99493.16
2018-10-19T12:51:39.232Z,99491.41
2018-10-19T12:54:13.309Z,99488.63
2018-10-19T12:56:41.113Z,99486.07
2018-10-19T12:59:08.453Z,99487.98
2018-10-19T13:01:35.917Z,99484.44
2018-10-19T13:04:03.458Z,99487.98
2018-10-19T13:06:30.797Z,99484.53
2018-10-19T13:08:58.168Z,99487.86
2018-10-19T13:11:25.831Z,99487.66
2018-10-19T13:13:53.311Z,99482.94
2018-10-19T13:16:20.872Z,99469.33
2018-10-19T13:18:48.158Z,99471.89
2018-10-19T13:21:15.438Z,99470.62
2018-10-19T13:23:42.733Z,99473.08
2018-10-19T13:26:10.257Z,99469.05
2018-10-19T13:28:37.524Z,99461.80
2018-10-19T13:31:04.859Z,99468.98
2018-10-19T13:33:33.177Z,99460.05
2018-10-19T13:36:00.458Z,99467.89
2018-10-19T13:38:27.641Z,99471.69
2018-10-19T13:40:55.416Z,98856.59
2018-10-19T13:43:23.040Z,99466.97
2018-10-19T13:45:50.758Z,99472.39
2018-10-19T13:48:18.509Z,99475.37
2018-10-19T13:50:46.232Z,99472.20
2018-10-19T13:53:13.905Z,99470.97
2018-10-19T13:55:41.099Z,99476.89
2018-10-19T13:58:08.386Z,99477.12
2018-10-19T14:00:35.753Z,99473.28
2018-10-19T14:03:03.104Z,99472.26
2018-10-19T14:05:30.661Z,99469.94
2018-10-19T14:07:57.852Z,99469.65
2018-10-19T14:10:25.208Z,99478.39
2018-10-19T14:12:52.483Z,99476.06
2018-10-19T14:15:19.844Z,99472.29
2018-10-19T14:17:47.210Z,99477.19
2018-10-19T14:20:14.824Z,99475.47
2018-10-19T14:22:42.087Z,99471.41
2018-10-19T14:25:11.489Z,99465.66
2018-10-19T14:27:40.014Z,99467.23
2018-10-19T14:30:10.350Z,99469.72
2018-10-19T14:32:39.277Z,99469.95
2018-10-19T14:35:06.863Z,99474.45
2018-10-19T14:37:34.869Z,99468.31
2018-10-19T14:40:02.112Z,99472.41
2018-10-19T14:42:29.485Z,99467.04
2018-10-19T14:44:56.811Z,99473.68
2018-10-19T14:47:24.136Z,99470.70
2018-10-19T14:49:51.606Z,99467.34
2018-10-19T14:52:18.880Z,99464.69
2018-10-19T14:54:46.297Z,99468.33
2018-10-19T14:57:13.767Z,99465.81
2018-10-19T14:59:45.090Z,99462.98
2018-10-19T15:02:12.278Z,99463.36
2018-10-19T15:04:39.466Z,99467.76
2018-10-19T15:07:06.622Z,99470.98
2018-10-19T15:09:33.832Z,99464.22
2018-10-19T15:12:01.015Z,99461.63
2018-10-19T15:14:29.131Z,99463.34
2018-10-19T15:16:56.409Z,99460.84
2018-10-19T15:19:25.399Z,99467.84
2018-10-19T15:21:52.706Z,99468.28
2018-10-19T15:24:19.998Z,99467.00
2018-10-19T15:26:47.253Z,99466.03
2018-10-19T15:29:15.493Z,99460.78
2018-10-19T15:31:42.862Z,99462.38
2018-10-19T15:34:10.128Z,99464.45
2018-10-19T15:36:37.538Z,99467.19
2018-10-19T15:39:07.638Z,99465.42
2018-10-19T15:41:34.915Z,99459.45
2018-10-19T15:44:02.144Z,99464.33
2018-10-19T15:46:29.465Z,99463.27
2018-10-19T15:48:56.634Z,99467.95
2018-10-19T15:51:23.837Z,99461.68
2018-10-19T15:53:51.381Z,99463.44
2018-10-19T15:56:18.696Z,99460.27
2018-10-19T15:58:45.980Z,99469.38
2018-10-19T16:01:13.252Z,99468.98
2018-10-19T16:03:40.715Z,99466.91
2018-10-19T16:06:08.257Z,99465.30
2018-10-19T16:08:35.665Z,99468.29
2018-10-19T16:11:02.939Z,99470.88
2018-10-19T16:13:30.615Z,99474.22
2018-10-19T16:15:58.346Z,99477.66
2018-10-19T16:18:28.532Z,99479.00
2018-10-19T16:20:56.234Z,99480.95
2018-10-19T16:23:24.709Z,99484.08
2018-10-19T16:25:55.370Z,99488.14
2018-10-19T16:28:24.508Z,99485.81
2018-10-19T16:30:51.965Z,99492.41
2018-10-19T16:33:19.778Z,99489.02
2018-10-19T16:35:48.711Z,99492.66
2018-10-19T16:38:16.230Z,99498.09
2018-10-19T16:40:43.523Z,99506.58
2018-10-19T16:43:10.882Z,99509.63
2018-10-19T16:45:38.859Z,99513.71
2018-10-19T16:48:06.953Z,99514.29
2018-10-19T16:50:34.222Z,99518.34
2018-10-19T16:53:01.573Z,99522.99
2018-10-19T16:55:28.728Z,99531.62
2018-10-19T16:57:56.017Z,99530.66
2018-10-19T17:00:23.304Z,99535.30
2018-10-19T17:02:50.708Z,99536.14
2018-10-19T17:05:17.942Z,99541.81
2018-10-19T17:07:45.148Z,99536.37
2018-10-19T17:10:12.416Z,99541.21
2018-10-19T17:12:40.676Z,99542.58
2018-10-19T17:15:09.760Z,99544.55
2018-10-19T17:17:37.480Z,99544.64
2018-10-19T17:20:05.075Z,99551.11
2018-10-19T17:22:32.421Z,99555.50
2018-10-19T17:25:00.241Z,99563.84
2018-10-19T17:27:27.701Z,99563.84
2018-10-19T17:29:55.211Z,99570.06
2018-10-19T17:32:22.773Z,99573.61
2018-10-19T17:34:50.428Z,99540.15
2018-10-19T17:37:17.714Z,99596.73
2018-10-19T17:39:46.525Z,99597.61
2018-10-19T17:42:13.773Z,99596.62
2018-10-19T17:44:41.465Z,99597.47
2018-10-19T17:47:09.658Z,99597.54
2018-10-19T17:50:03.624Z,99593.31
2018-10-19T17:52:31.132Z,99599.80
2018-10-19T17:54:58.432Z,99599.88
2018-10-19T17:57:26.143Z,99607.09
2018-10-19T17:59:53.362Z,99611.39
2018-10-19T18:02:20.504Z,99617.34
2018-10-19T18:04:48.106Z,99608.84
2018-10-19T18:07:18.371Z,99608.84
2018-10-19T18:09:47.006Z,99607.85
2018-10-19T18:12:14.346Z,99610.04
2018-10-19T18:14:41.612Z,99622.83
2018-10-19T18:17:08.924Z,99628.45
2018-10-19T18:19:36.255Z,99627.42
2018-10-19T18:24:39.358Z,99633.67
2018-10-19T18:27:06.673Z,99638.73
2018-10-19T18:29:33.826Z,99637.23
2018-10-19T18:32:01.125Z,99642.52
2018-10-19T18:34:28.363Z,99644.94
2018-10-19T18:36:55.642Z,99643.59
2018-10-19T18:39:22.962Z,99643.85
2018-10-19T18:41:50.293Z,99642.87
2018-10-19T18:44:17.598Z,99647.70
2018-10-19T18:46:44.766Z,99642.90
2018-10-19T18:49:12.091Z,99648.79
2018-10-19T18:51:39.527Z,99647.20
2018-10-19T18:54:07.024Z,99644.35
2018-10-19T18:56:34.466Z,99649.44
2018-10-19T18:59:01.819Z,99658.48
2018-10-19T19:01:29.242Z,99658.23
2018-10-19T19:03:56.670Z,99658.20
2018-10-19T19:06:23.995Z,99658.47
2018-10-19T19:08:51.503Z,99664.88
2018-10-19T19:11:19.004Z,99663.61
2018-10-19T19:13:48.329Z,99674.49
2018-10-19T19:16:21.478Z,99672.64
2018-10-19T19:18:48.852Z,99674.25
2018-10-19T19:21:16.179Z,99674.77
2018-10-19T19:23:49.073Z,99679.81
2018-10-19T19:26:20.130Z,99684.05
2018-10-19T19:31:26.006Z,99688.64
2018-10-19T19:33:59.163Z,99685.72
2018-10-19T19:36:26.504Z,99688.64
2018-10-19T19:38:53.957Z,99694.20
2018-10-19T19:41:27.066Z,99702.19
2018-10-19T19:43:54.382Z,99710.43
2018-10-19T19:46:21.671Z,99716.54
2018-10-19T19:48:54.523Z,99718.12
2018-10-19T19:51:21.670Z,99725.02
2018-10-19T19:53:49.128Z,99729.28
2018-10-19T19:56:16.425Z,99738.84
2018-10-19T19:58:44.569Z,99736.97
2018-10-19T20:01:11.999Z,99737.48
2018-10-19T20:03:47.762Z,99740.94
2018-10-19T20:06:15.222Z,99741.46
2018-10-19T20:08:42.419Z,99739.33
2018-10-19T20:11:09.703Z,99734.00
2018-10-19T20:13:36.871Z,99738.50
2018-10-19T20:16:04.384Z,99735.57
2018-10-19T20:18:31.603Z,99743.28
2018-10-19T20:20:58.782Z,99734.76
2018-10-19T20:23:26.042Z,99738.48
2018-10-19T20:25:53.488Z,99736.40
2018-10-19T20:28:20.904Z,99744.08
2018-10-19T20:30:48.418Z,99683.92
2018-10-19T20:33:15.654Z,99743.53
2018-10-19T20:35:42.868Z,99748.84
2018-10-19T20:38:10.321Z,99755.92
2018-10-19T20:40:37.539Z,99761.17
2018-10-19T20:43:05.471Z,99763.28
2018-10-19T20:45:32.778Z,99756.33
2018-10-19T20:48:00.089Z,99754.25
2018-10-19T20:50:27.288Z,99757.44
2018-10-19T20:52:54.692Z,99758.23
2018-10-19T20:55:22.017Z,99762.71
2018-10-19T20:57:49.210Z,99764.59
2018-10-19T21:00:17.536Z,99760.61
2018-10-19T21:02:45.266Z,99767.23
2018-10-19T21:05:12.576Z,99763.16
2018-10-19T21:07:39.794Z,99752.29
2018-10-19T21:10:09.461Z,99757.58
2018-10-19T21:12:37.323Z,99751.67
2018-10-19T21:15:05.788Z,99755.28
2018-10-19T21:17:33.103Z,99756.60
2018-10-19T21:20:00.309Z,99756.87
2018-10-19T21:22:27.542Z,99755.28
2018-10-19T21:24:54.756Z,99758.88
2018-10-19T21:27:22.057Z,99759.66
2018-10-19T21:29:49.851Z,99754.34
2018-10-19T21:32:17.111Z,99761.80
2018-10-19T21:34:44.227Z,99767.31
2018-10-19T21:37:11.641Z,99730.11
2018-10-19T21:39:38.838Z,99759.36
2018-10-19T21:42:06.095Z,99760.88
2018-10-19T21:44:33.410Z,99760.11
2018-10-19T21:47:00.755Z,99767.50
2018-10-19T21:49:27.945Z,99765.91
2018-10-19T21:51:55.357Z,99760.02
2018-10-19T21:54:22.726Z,99545.64
2018-10-19T21:56:49.869Z,99761.34
2018-10-19T21:59:17.186Z,99759.39
2018-10-19T22:01:44.214Z,99766.09
2018-10-19T22:04:11.442Z,99761.05
2018-10-19T22:06:38.599Z,99754.92
2018-10-19T22:09:09.890Z,99760.66
2018-10-19T22:11:37.813Z,99755.54
2018-10-19T22:14:04.962Z,99758.77
2018-10-19T22:16:32.272Z,99751.80
2018-10-19T22:18:59.460Z,99763.47
2018-10-19T22:21:26.613Z,99766.08
2018-10-19T22:23:53.814Z,99768.05
2018-10-19T22:26:21.033Z,99763.95
2018-10-19T22:28:48.221Z,99760.86
2018-10-19T22:31:15.426Z,99757.14
2018-10-19T22:33:42.577Z,99759.56
2018-10-19T22:36:09.846Z,99760.59
2018-10-19T22:38:37.074Z,99760.34
2018-10-19T22:41:04.804Z,99760.53
2018-10-19T22:43:32.060Z,99760.34
2018-10-19T22:45:59.286Z,99758.73
2018-10-19T22:48:26.434Z,99752.91
2018-10-19T22:50:53.631Z,99755.23
2018-10-19T22:53:20.781Z,99754.92
2018-10-19T22:55:47.990Z,99754.11
2018-10-19T22:58:15.240Z,99750.63
2018-10-19T23:00:42.383Z,99753.59
2018-10-19T23:03:09.589Z,99753.82
2018-10-19T23:05:36.799Z,99752.20
2018-10-19T23:08:04.509Z,99763.20
2018-10-19T23:10:31.701Z,99768.20
2018-10-19T23:12:59.014Z,99767.91
2018-10-19T23:15:26.152Z,99766.81
2018-10-19T23:17:53.310Z,99766.41
2018-10-19T23:20:20.622Z,99770.59
2018-10-19T23:22:47.854Z,99777.58
2018-10-19T23:25:15.103Z,99784.98
2018-10-19T23:27:42.407Z,99769.97
2018-10-19T23:30:09.549Z,99770.14
2018-10-19T23:32:36.758Z,99773.23
2018-10-19T23:35:05.359Z,99776.80
2018-10-19T23:37:32.566Z,99777.23
2018-10-19T23:39:59.808Z,99779.36
2018-10-19T23:42:27.074Z,99785.86
2018-10-19T23:44:54.309Z,99785.63
2018-10-19T23:47:21.454Z,99789.48
2018-10-19T23:49:48.635Z,99787.39
2018-10-19T23:52:15.825Z,99786.58
2018-10-19T23:54:43.007Z,99798.26
2018-10-19T23:57:10.269Z,99797.97
2018-10-19T23:59:37.570Z,99807.95
